createdAt,value
2022-11-02T00:02:17.396Z,94434.41
2022-11-02T00:04:43.932Z,94436.19
2022-11-02T00:07:10.385Z,94441.56
2022-11-02T00:09:37.450Z,94417.16
2022-11-02T00:12:04.079Z,94454.81
2022-11-02T00:14:37.662Z,94437.31
2022-11-02T00:17:04.126Z,94453.03
2022-11-02T00:19:30.788Z,94438.44
2022-11-02T00:21:58.834Z,94437.00
2022-11-02T00:24:25.560Z,94438.25
2022-11-02T00:26:53.112Z,94459.75
2022-11-02T00:29:20.847Z,94445.13
2022-11-02T00:31:47.250Z,94440.25
2022-11-02T00:34:13.639Z,94435.88
2022-11-02T00:36:40.057Z,94461.06
2022-11-02T00:39:06.457Z,94461.84
2022-11-02T00:41:32.838Z,94479.25
2022-11-02T00:43:59.231Z,94487.03
2022-11-02T00:46:25.629Z,94483.13
2022-11-02T00:48:52.077Z,94473.72
2022-11-02T00:51:18.469Z,94485.56
2022-11-02T00:53:44.859Z,94480.84
2022-11-02T00:56:11.266Z,94491.91
2022-11-02T00:58:37.789Z,94462.88
2022-11-02T01:01:05.931Z,94510.69
2022-11-02T01:03:32.402Z,94517.53
2022-11-02T01:05:58.974Z,94508.78
2022-11-02T01:08:25.379Z,94474.69
2022-11-02T01:10:51.777Z,94518.56
2022-11-02T01:13:18.193Z,94491.19
2022-11-02T01:15:44.619Z,94479.16
2022-11-02T01:18:11.208Z,94464.88
2022-11-02T01:20:37.602Z,94475.09
2022-11-02T01:23:04.032Z,94484.00
2022-11-02T01:25:30.423Z,94431.75
2022-11-02T01:27:57.193Z,94430.75
2022-11-02T01:30:23.592Z,94464.53
2022-11-02T01:32:49.969Z,94484.31
2022-11-02T01:35:16.845Z,94490.53
2022-11-02T01:37:45.348Z,94462.91
2022-11-02T01:40:11.923Z,94489.16
2022-11-02T01:42:38.339Z,94495.13
2022-11-02T01:45:05.119Z,94495.00
2022-11-02T01:47:37.963Z,94513.03
2022-11-02T01:50:16.416Z,94513.69
2022-11-02T01:52:42.871Z,94518.88
2022-11-02T01:55:19.300Z,94533.19
2022-11-02T01:57:47.721Z,94529.94
2022-11-02T02:00:16.687Z,94508.47
2022-11-02T02:02:49.189Z,94536.09
2022-11-02T02:05:17.665Z,94516.38
2022-11-02T02:07:45.085Z,94542.44
2022-11-02T02:10:11.864Z,94507.66
2022-11-02T02:12:41.119Z,94538.00
2022-11-02T02:15:08.592Z,94537.66
2022-11-02T02:17:44.016Z,94551.28
2022-11-02T02:20:20.294Z,94482.63
2022-11-02T02:23:14.677Z,94554.09
2022-11-02T02:25:56.325Z,94548.56
2022-11-02T02:28:51.974Z,94552.94
2022-11-02T02:31:35.089Z,94520.47
2022-11-02T02:34:20.986Z,94545.19
2022-11-02T02:36:52.081Z,94562.41
2022-11-02T02:39:21.526Z,94549.97
2022-11-02T02:42:26.617Z,94544.78
2022-11-02T02:45:12.115Z,94531.31
2022-11-02T02:47:46.553Z,94526.28
2022-11-02T02:50:27.679Z,94537.59
2022-11-02T02:52:56.930Z,94518.91
2022-11-02T02:55:31.180Z,94514.50
2022-11-02T02:58:00.761Z,94505.69
2022-11-02T03:00:27.314Z,94517.81
2022-11-02T03:03:01.562Z,94502.38
2022-11-02T03:05:30.338Z,94538.66
2022-11-02T03:08:03.053Z,94525.16
2022-11-02T03:10:34.572Z,94501.78
2022-11-02T03:13:28.870Z,94538.50
2022-11-02T03:16:03.270Z,94540.81
2022-11-02T03:18:38.531Z,94524.13
2022-11-02T03:21:27.821Z,94518.00
2022-11-02T03:24:19.042Z,94544.94
2022-11-02T03:26:57.540Z,94540.66
2022-11-02T03:29:29.685Z,94544.56
2022-11-02T03:32:11.142Z,94525.00
2022-11-02T03:34:41.396Z,94548.41
2022-11-02T03:37:26.192Z,94521.44
2022-11-02T03:39:58.894Z,94515.59
2022-11-02T03:42:27.816Z,94519.13
2022-11-02T03:44:59.567Z,94513.06
2022-11-02T03:47:30.923Z,94513.91
2022-11-02T03:50:00.509Z,94490.78
2022-11-02T03:52:30.413Z,94506.38
2022-11-02T03:55:18.073Z,94532.91
2022-11-02T03:57:47.638Z,94511.47
2022-11-02T04:00:25.652Z,94511.47
2022-11-02T04:02:58.772Z,94515.91
2022-11-02T04:05:34.154Z,94500.91
2022-11-02T04:08:19.766Z,94502.47
2022-11-02T04:11:06.133Z,94519.59
2022-11-02T04:13:51.476Z,94516.25
2022-11-02T04:16:21.285Z,94527.53
2022-11-02T04:19:15.797Z,94516.31
2022-11-02T04:22:02.170Z,94522.38
2022-11-02T04:24:46.936Z,94535.03
2022-11-02T04:27:16.735Z,94515.38
2022-11-02T04:29:46.130Z,94506.06
2022-11-02T04:32:12.542Z,94488.53
2022-11-02T04:34:38.930Z,94540.13
2022-11-02T04:37:25.356Z,94505.03
2022-11-02T04:39:51.740Z,94514.69
2022-11-02T04:42:18.146Z,94518.94
2022-11-02T04:44:44.552Z,94532.88
2022-11-02T04:47:10.941Z,94517.59
2022-11-02T04:49:37.324Z,94484.41
2022-11-02T04:52:03.878Z,94515.41
2022-11-02T04:54:37.250Z,94532.91
2022-11-02T04:57:03.748Z,94509.25
2022-11-02T04:59:30.170Z,94514.31
2022-11-02T05:01:56.658Z,94520.22
2022-11-02T05:04:23.137Z,94505.25
2022-11-02T05:06:49.543Z,94478.22
2022-11-02T05:09:16.035Z,94491.28
2022-11-02T05:11:42.926Z,94482.91
2022-11-02T05:14:09.298Z,94533.66
2022-11-02T05:16:35.698Z,94484.06
2022-11-02T05:19:04.497Z,94534.44
2022-11-02T05:21:33.377Z,94514.47
2022-11-02T05:23:59.879Z,94519.84
2022-11-02T05:26:26.317Z,94517.09
2022-11-02T05:28:52.705Z,94523.44
2022-11-02T05:31:19.115Z,94503.53
2022-11-02T05:33:45.647Z,94495.63
2022-11-02T05:36:12.752Z,94539.03
2022-11-02T05:41:10.979Z,94548.72
2022-11-02T05:43:37.954Z,94513.22
2022-11-02T05:46:04.928Z,94541.75
2022-11-02T05:48:32.904Z,94536.72
2022-11-02T05:51:01.718Z,94532.41
2022-11-02T05:53:31.642Z,94552.84
2022-11-02T05:55:59.143Z,94496.25
2022-11-02T05:58:26.070Z,94556.44
2022-11-02T06:00:52.555Z,94531.03
2022-11-02T06:03:20.361Z,94570.66
2022-11-02T06:05:46.836Z,94551.59
2022-11-02T06:08:13.299Z,94569.81
2022-11-02T06:10:42.831Z,94556.69
2022-11-02T06:13:09.808Z,94537.03
2022-11-02T06:15:36.204Z,94467.78
2022-11-02T06:18:03.773Z,94560.94
2022-11-02T06:20:30.184Z,94571.13
2022-11-02T06:22:56.707Z,94572.38
2022-11-02T06:25:23.185Z,94557.50
2022-11-02T06:27:56.112Z,94581.44
2022-11-02T06:30:26.284Z,94585.28
2022-11-02T06:32:53.963Z,94596.28
2022-11-02T06:35:21.903Z,94565.50
2022-11-02T06:37:48.534Z,94575.13
2022-11-02T06:40:15.451Z,94512.84
2022-11-02T06:42:45.342Z,94554.72
2022-11-02T06:45:17.202Z,94613.69
2022-11-02T06:47:49.054Z,94581.22
2022-11-02T06:50:15.580Z,94579.91
2022-11-02T06:52:48.017Z,94617.16
2022-11-02T06:55:15.654Z,94612.00
2022-11-02T06:57:43.046Z,94608.81
2022-11-02T07:00:14.532Z,94627.84
2022-11-02T07:02:46.430Z,94626.16
2022-11-02T07:05:13.537Z,94626.69
2022-11-02T07:07:39.931Z,94612.78
2022-11-02T07:10:10.089Z,94590.47
2022-11-02T07:12:36.755Z,94619.78
2022-11-02T07:15:03.278Z,94602.44
2022-11-02T07:17:32.154Z,94607.78
2022-11-02T07:19:58.974Z,94632.00
2022-11-02T07:22:25.438Z,94613.34
2022-11-02T07:24:51.991Z,94602.00
2022-11-02T07:27:19.558Z,94568.06
2022-11-02T07:29:45.968Z,94578.53
2022-11-02T07:32:12.371Z,94653.56
2022-11-02T07:34:38.762Z,94629.88
2022-11-02T07:37:05.152Z,94654.72
2022-11-02T07:39:31.646Z,94624.72
2022-11-02T07:41:58.287Z,94658.41
2022-11-02T07:44:24.772Z,94618.28
2022-11-02T07:46:51.186Z,94631.63
2022-11-02T07:49:21.492Z,94602.63
2022-11-02T07:51:48.367Z,94654.16
2022-11-02T07:54:14.756Z,94658.97
2022-11-02T07:56:41.134Z,94611.25
2022-11-02T07:59:10.485Z,94634.94
2022-11-02T08:01:44.168Z,94654.44
2022-11-02T08:04:10.630Z,94645.03
2022-11-02T08:06:37.041Z,94670.63
2022-11-02T08:09:03.506Z,94645.56
2022-11-02T08:11:30.220Z,94636.78
2022-11-02T08:13:56.677Z,94680.63
2022-11-02T08:16:23.091Z,94679.41
2022-11-02T08:18:49.515Z,94638.94
2022-11-02T08:21:16.955Z,94666.91
2022-11-02T08:23:43.421Z,94633.84
2022-11-02T08:26:09.892Z,94639.75
2022-11-02T08:28:39.942Z,94677.03
2022-11-02T08:31:09.950Z,94703.00
2022-11-02T08:33:36.394Z,94655.25
2022-11-02T08:36:04.259Z,94682.34
2022-11-02T08:38:31.409Z,94684.91
2022-11-02T08:40:58.059Z,94657.19
2022-11-02T08:43:24.494Z,94665.38
2022-11-02T08:48:37.540Z,94665.84
2022-11-02T08:51:05.596Z,94682.50
2022-11-02T08:53:32.244Z,94663.53
2022-11-02T08:55:59.327Z,94682.81
2022-11-02T08:58:26.283Z,94695.31
2022-11-02T09:00:53.684Z,94682.66
2022-11-02T09:03:26.211Z,94671.25
2022-11-02T09:05:58.750Z,94677.19
2022-11-02T09:08:26.136Z,94688.06
2022-11-02T09:10:53.075Z,94668.19
2022-11-02T09:13:25.170Z,94675.09
2022-11-02T09:15:56.842Z,94702.78
2022-11-02T09:18:24.541Z,94695.63
2022-11-02T09:20:51.459Z,94694.78
2022-11-02T09:23:19.545Z,94689.66
2022-11-02T09:25:46.011Z,94682.88
2022-11-02T09:28:15.028Z,94693.16
2022-11-02T09:30:42.002Z,94710.34
2022-11-02T09:33:08.886Z,94710.97
2022-11-02T09:35:38.359Z,94676.31
2022-11-02T09:38:05.214Z,94701.25
2022-11-02T09:40:38.910Z,94709.38
2022-11-02T09:43:08.537Z,94705.41
2022-11-02T09:45:46.611Z,94710.66
2022-11-02T09:48:28.047Z,94679.09
2022-11-02T09:51:07.920Z,94712.13
2022-11-02T09:54:06.697Z,94722.56
2022-11-02T09:56:34.600Z,94714.31
2022-11-02T09:59:03.299Z,94691.28
2022-11-02T10:01:55.497Z,94714.69
2022-11-02T10:04:59.754Z,94712.38
2022-11-02T10:07:32.834Z,94706.19
2022-11-02T10:10:11.213Z,94683.22
2022-11-02T10:12:54.358Z,94696.38
2022-11-02T10:15:28.754Z,94696.22
2022-11-02T10:17:58.789Z,94701.09
2022-11-02T10:20:33.044Z,94703.09
2022-11-02T10:23:05.024Z,94680.38
2022-11-02T10:25:31.714Z,94679.94
2022-11-02T10:28:11.495Z,94680.75
2022-11-02T10:30:38.587Z,94705.56
2022-11-02T10:33:15.895Z,94689.59
2022-11-02T10:38:53.782Z,94691.53
2022-11-02T10:41:49.674Z,94700.69
2022-11-02T10:44:25.126Z,94694.19
2022-11-02T10:47:04.090Z,94680.38
2022-11-02T10:49:49.178Z,94695.09
2022-11-02T10:52:17.837Z,94674.44
2022-11-02T10:54:44.484Z,94676.41
2022-11-02T10:57:13.315Z,94685.72
2022-11-02T10:59:40.236Z,94670.16
2022-11-02T11:02:14.760Z,94691.53
2022-11-02T11:04:42.413Z,94688.78
2022-11-02T11:07:20.919Z,94690.97
2022-11-02T11:09:53.985Z,94699.50
2022-11-02T11:12:32.577Z,94690.22
2022-11-02T11:20:37.252Z,94675.00
2022-11-02T11:23:10.290Z,94698.00
2022-11-02T11:25:42.733Z,94703.19
2022-11-02T11:28:30.786Z,94693.31
2022-11-02T11:31:10.244Z,94690.91
2022-11-02T11:33:55.538Z,94708.13
2022-11-02T11:36:32.904Z,94698.88
2022-11-02T11:39:04.195Z,94687.25
2022-11-02T11:41:32.720Z,94677.47
2022-11-02T11:44:01.293Z,94669.44
2022-11-02T11:46:52.433Z,94689.94
2022-11-02T11:50:07.180Z,94670.31
2022-11-02T11:52:31.683Z,94673.66
2022-11-02T11:55:28.311Z,94683.44
2022-11-02T11:58:15.481Z,94685.19
2022-11-02T12:00:42.321Z,94669.75
2022-11-02T12:03:11.847Z,94677.56
2022-11-02T12:06:03.047Z,94673.16
2022-11-02T12:08:44.106Z,94673.59
2022-11-02T12:11:25.890Z,94672.00
2022-11-02T12:14:31.088Z,94666.00
2022-11-02T12:17:11.077Z,94645.03
2022-11-02T12:20:05.154Z,94661.66
2022-11-02T12:22:57.864Z,94665.88
2022-11-02T12:25:50.658Z,94663.22
2022-11-02T12:28:51.795Z,94651.53
2022-11-02T12:31:37.344Z,94653.09
2022-11-02T12:34:26.601Z,94647.06
2022-11-02T12:37:40.457Z,94641.41
2022-11-02T12:40:28.471Z,94638.97
2022-11-02T12:43:23.066Z,94632.44
2022-11-02T12:46:00.058Z,94621.06
2022-11-02T12:49:08.403Z,94618.66
2022-11-02T12:51:44.198Z,94606.75
2022-11-02T12:54:15.593Z,94582.59
2022-11-02T12:56:57.841Z,94585.44
2022-11-02T12:59:42.208Z,94592.34
2022-11-02T13:02:52.279Z,94625.25
2022-11-02T13:05:22.262Z,94620.16
2022-11-02T13:07:57.617Z,94611.47
2022-11-02T13:10:30.718Z,94604.63
2022-11-02T13:12:59.837Z,94609.13
2022-11-02T13:15:29.234Z,94609.22
2022-11-02T13:18:19.612Z,94608.13
2022-11-02T13:20:52.136Z,94580.47
2022-11-02T13:23:26.354Z,94602.81
2022-11-02T13:25:58.373Z,94597.16
2022-11-02T13:28:35.750Z,94582.53
2022-11-02T13:31:12.804Z,94595.09
2022-11-02T13:33:53.420Z,94582.97
2022-11-02T13:36:31.215Z,94571.31
2022-11-02T13:39:15.943Z,94584.69
2022-11-02T13:42:05.288Z,94580.88
2022-11-02T13:45:15.177Z,94581.03
2022-11-02T13:47:48.276Z,94582.06
2022-11-02T13:50:20.185Z,94568.00
2022-11-02T13:52:54.736Z,94562.56
2022-11-02T13:55:41.320Z,94561.66
2022-11-02T13:58:23.861Z,94547.69
2022-11-02T14:00:51.875Z,94562.03
2022-11-02T14:03:28.033Z,94559.34
2022-11-02T14:06:00.425Z,94574.25
2022-11-02T14:08:40.809Z,94560.13
2022-11-02T14:11:10.352Z,94569.06
2022-11-02T14:13:54.314Z,94571.09
2022-11-02T14:16:50.269Z,94573.25
2022-11-02T14:19:31.906Z,94571.69
2022-11-02T14:22:16.798Z,94560.59
2022-11-02T14:24:48.197Z,94570.19
2022-11-02T14:27:19.066Z,94561.34
2022-11-02T14:29:45.408Z,94571.03
2022-11-02T14:32:40.990Z,94566.63
2022-11-02T14:35:13.624Z,94562.63
2022-11-02T14:38:03.190Z,94566.44
2022-11-02T14:40:48.575Z,94562.19
2022-11-02T14:43:48.955Z,94558.09
2022-11-02T14:46:57.356Z,94557.69
2022-11-02T14:49:36.865Z,94540.09
2022-11-02T14:52:18.067Z,94564.19
2022-11-02T14:54:50.435Z,94572.63
2022-11-02T14:57:27.530Z,94559.50
2022-11-02T14:59:57.714Z,94549.38
2022-11-02T15:02:45.741Z,94543.56
2022-11-02T15:05:24.255Z,94531.59
2022-11-02T15:08:27.736Z,94527.75
2022-11-02T15:10:54.401Z,94530.22
2022-11-02T15:13:20.813Z,94538.84
2022-11-02T21:05:37.990Z,94353.03
2022-11-02T21:08:11.324Z,94353.75
2022-11-02T21:10:38.136Z,94371.66
2022-11-02T21:13:23.676Z,94330.03
2022-11-02T21:15:56.729Z,94351.53
2022-11-02T21:18:23.197Z,94334.72
2022-11-02T21:20:49.604Z,94354.84
2022-11-02T21:23:16.043Z,94361.00
2022-11-02T21:25:42.452Z,94338.25
2022-11-02T21:31:08.845Z,94348.59
2022-11-02T21:33:35.573Z,94344.22
2022-11-02T21:36:02.211Z,94367.78
2022-11-02T21:38:29.411Z,94343.13
2022-11-02T21:40:59.429Z,94365.75
2022-11-02T21:43:26.613Z,94357.88
2022-11-02T21:46:01.280Z,94358.78
2022-11-02T21:48:31.684Z,94358.41
2022-11-02T21:51:05.879Z,94361.81
2022-11-02T21:53:33.862Z,94345.78
2022-11-02T21:56:10.998Z,94361.00
2022-11-02T21:58:43.031Z,94336.31
2022-11-02T22:01:34.655Z,94357.72
2022-11-02T22:04:01.658Z,94317.47
2022-11-02T22:06:31.340Z,94324.63
2022-11-02T22:08:59.142Z,94305.13
2022-11-02T22:11:28.866Z,94344.72
2022-11-02T22:13:58.006Z,94332.56
2022-11-02T22:16:25.979Z,94337.19
2022-11-02T22:18:55.246Z,94316.03
2022-11-02T22:21:29.568Z,94339.84
2022-11-02T22:23:56.603Z,94334.34
2022-11-02T22:26:30.224Z,94346.00
2022-11-02T22:28:57.984Z,94343.69
2022-11-02T22:31:27.198Z,94320.13
2022-11-02T22:33:55.741Z,94345.13
2022-11-02T22:36:25.098Z,94309.34
2022-11-02T22:38:53.592Z,94289.94
2022-11-02T22:41:31.484Z,94286.00
2022-11-02T22:44:03.695Z,94307.16
2022-11-02T22:46:32.011Z,94311.16
2022-11-02T22:49:00.135Z,94304.38
2022-11-02T22:51:28.296Z,94262.31
2022-11-02T22:53:55.143Z,94298.44
2022-11-02T22:56:22.987Z,94312.00
2022-11-02T22:58:50.265Z,94236.38
2022-11-02T23:01:19.121Z,94299.22
2022-11-02T23:03:46.893Z,94304.53
2022-11-02T23:06:14.225Z,94287.34
2022-11-02T23:08:43.101Z,94299.28
2022-11-02T23:11:22.716Z,94299.84
2022-11-02T23:14:01.292Z,94292.22
2022-11-02T23:16:40.811Z,94296.34
2022-11-02T23:19:29.636Z,94287.63
2022-11-02T23:22:22.797Z,94290.88
2022-11-02T23:25:09.254Z,94286.09
2022-11-02T23:27:59.971Z,94285.66
2022-11-02T23:30:48.438Z,94282.94
2022-11-02T23:33:15.525Z,94263.53
2022-11-02T23:36:01.101Z,94275.19
2022-11-02T23:38:45.739Z,94264.69
2022-11-02T23:41:12.152Z,94257.09
2022-11-02T23:43:38.536Z,94276.59
2022-11-02T23:46:05.125Z,94246.97
2022-11-02T23:48:31.557Z,94250.53
2022-11-02T23:51:16.517Z,94272.31
2022-11-02T23:54:01.418Z,94255.47
2022-11-02T23:56:43.210Z,94263.59
2022-11-02T23:59:10.666Z,94242.16
